ROMMA est une association bénévole à but non lucratif. Votre soutien est indispensable : ADHERER à ROMMA ou FAIRE un DON

Granges-lès-Beaumont - (26, Drôme)

Drôme des Collines (155 m)   Longitude: 04°58'E   Latitude: 45°03'N Station partenaire n°123
 

Détail journalier du     <<     >>

Température Precipitation Humidité Pression Vent Dir Rafale Dir. rafale Ensol.
Heure (°C) (mm) (%) (hPa) (km/h) (km/h) (min)
01:00 5.708810171N6N0
02:00 7.408410168SSO19S0
03:00 8.108210169SSO21SSO0
04:00 8.208010159SSO21SO0
05:00 8.2080101513SSO29S0
06:00 7.9082101514SSO35S0
07:00 7.208510145ENE15ENE0
08:00 7.708610134SSE24S0
09:00 8.0086101310S26S0
10:00 8.208710129S29S0
11:00 9.2082101212S34SSO0
12:00 9.4079101218S48S0
13:00 9.4077101115S35SSO0
14:00 10.9072100917S44SSO0
15:00 10.6078101020SSO45SO0
16:00 10.1083101120SSO40SO0
17:00 10.2084101316SSO37S0
18:00 9.20.482101412SO31SO10
19:00 7.708010154NNE19ONO0
20:00 5.408210163NNE11ESE0
21:00 4.408310175N13NO0
22:00 5.008110186NNO13ENE0
23:00 6.407510188ONO27ONO0
minuit 5.007710187NO15NO0

Graphique du 10-02-2019

 

Serveur OMMA